AirNav   Everest Fuels
 
 1297 users online  

10PN One Meridian Plaza Heliport
Philadelphia, Pennsylvania, USA

GOING TO PHILADELPHIA?


FAA INFORMATION EFFECTIVE 05 DECEMBER 2019

Location

FAA Identifier: 10PN
Lat/Long: 39-55-50.4060N 075-14-38.6550W
39-55.840100N 075-14.644250W
39.9306683,-75.2440708
(estimated)
Elevation: 560 ft. / 171 m (estimated)
Variation: 11W (1985)
Time zone: UTC -5 (UTC -4 during Daylight Saving Time)
Zip code: 19050

Heliport Operations

Heliport use: Private use. Permission required prior to landing
Activation date: 04/1979
Control tower: no
ARTCC: NEW YORK CENTER
FSS: WILLIAMSPORT FLIGHT SERVICE STATION
Attendance: UNATNDD
Wind indicator: lighted
Segmented circle: no

Heliport Communications

WX ASOS at PHL (4 nm S): PHONE 215-492-9617
WX AWOS-3 at LOM (12 nm N): 118.925 (215-646-1068)
WX ASOS at PNE (14 nm NE): PHONE 215-677-0146
WX AWOS-3T at OQN (16 nm W): 121.4 ((610) 692-6190)
WX ASOS at VAY (18 nm E): 119.325 (609-267-1176)

Nearby radio navigation aids

VOR radial/distance  VOR name  Freq  Var
OODr019/17.9WOODSTOWN VORTAC112.8010W
MXEr097/19.7MODENA VORTAC113.2009W
DQOr058/22.6DUPONT VORTAC114.0010W
PTWr149/22.7POTTSTOWN VORTAC116.5009W
ARDr229/24.8YARDLEY VOR/DME108.2010W
VCNr342/26.8CEDAR LAKE VOR/DME115.2010W
GXUr273/30.1MC GUIRE VORTAC110.6012W
CYNr290/38.0COYLE VORTAC113.4010W
RBVr255/38.1ROBBINSVILLE VORTAC113.8010W

 
NDB name  Hdg/Dist  Freq  Var  ID
AMBLER183/11.927512WING .. -. --.
RAINBOW002/31.236311WRNB .-. -. -...

Heliport Services

Runway Information

Helipad H1

Dimensions: 200 x 75 ft. / 61 x 23 m
Surface: concrete, in fair condition
ROOFTOP.
Latitude: 39-55.840100N
Longitude: 075-14.644250W
Elevation: 560.0 ft.
Traffic pattern: leftleft
Markings: none, in fair condition

Heliport Ownership and Management from official FAA records

Ownership: Privately-owned
Owner: THE RUBIN ORGANIZATION, INC
2000 S BROAD ST-THE BELLVUE
PHILADELPHIA, PA 19102
Phone 215-875-0700
Manager: LOUIS J. LOMBARDI
1414 S PENN SQUARE
PHILADELPHIA, PA 19102
Phone 215-875-8350

Additional Remarks

HELI CLSD INDEFLY.
FOR CD CTC PHILADELPHIA APCH AT 800-354-9884.

Instrument Procedures

There are no published instrument procedures at 10PN.

Some nearby airports with instrument procedures:

KPHL - Philadelphia International Airport (4 nm S)
KLOM - Wings Field Airport (12 nm N)
7N7 - Spitfire Aerodrome (14 nm SW)
KPNE - Northeast Philadelphia Airport (14 nm NE)
KOQN - Brandywine Regional Airport (16 nm W)
19N - Camden County Airport (16 nm SE)
17N - Cross Keys Airport (17 nm SE)
KVAY - South Jersey Regional Airport (18 nm E)
N10 - Perkiomen Valley Airport (18 nm NW)
 
Loc | Ops | Rwys | IFR | FBO | Links
Com | Nav | Svcs | Stats | Notes
Area around 10PN (One Meridian Plaza Heliport)
 
Road maps at: MapQuest Bing Google
 
Aerial photo
No photo
 
Sectional chart

 
Airport distance calculator
Flying to One Meridian Plaza Heliport? Find the distance to fly.

From to 10PN

Sunrise and sunset
Times for 06-Dec-2019
 Local
(UTC-5)
 Zulu
(UTC)
Morning civil twilight06:3911:39
Sunrise07:0912:09
Sunset16:3521:35
Evening civil twilight17:0522:05

Current date and time
Zulu (UTC)  06-Dec-2019 15:10:58
Local (UTC-5)  06-Dec-2019 10:10:58
 
METAR
KPHL 
4nm S 
061454Z 21009KT 10SM SCT075 BKN150 BKN260 06/M03 A3015 RMK AO2 SLP208 T00561033 58008
KLOM 
12nm N 
061455Z AUTO 21010G16KT 10SM CLR 06/M03 A3012 RMK AO2 T00581029
KPNE 
14nm NE 
061454Z 21006KT 10SM FEW120 06/M03 A3015 RMK AO2 SLP210 T00561033 58006
KOQN 
16nm W 
061455Z AUTO 20005KT 10SM CLR 05/M01 A3012 RMK AO2
KVAY 
19nm E 
ASOS 119.325 609-267-1176
061454Z AUTO 19005KT 10SM FEW075 04/M02 A3014 RMK AO2 SLP208 T00441017 58008
TAF
KPHL 
4nm S 
061120Z 0612/0718 24006KT P6SM BKN150 FM061400 21008KT P6SM OVC120 FM061700 23011G19KT P6SM BKN090 FM062200 26011KT P6SM BKN060 FM070200 30010KT P6SM SCT060 FM070700 33008KT P6SM SCT250
KPNE 
14nm NE 
061120Z 0612/0712 22008KT P6SM BKN120 FM061700 22010G18KT P6SM BKN080 FM062100 25008KT P6SM BKN060 FM070200 31010KT P6SM SCT060
NOTAMs
Click for the latest NOTAMs
NOTAMs are issued by the DoD/FAA and will open in a separate window not controlled by AirNav.

 

 
 

Would you like to see your business listed on this page?

 If your business provides an interesting product or service to pilots, flight crews, aircraft, or users of the One Meridian Plaza Heliport, you should consider listing it here.  To start the listing process, click on the button below
 
Add a business
 

Other Pages about One Meridian Plaza Heliport

Update a link
 
Copyright © AirNav, LLC. All rights reserved. Privacy Policy  Contact